Time;durP1;ratioP1;P1;durP2;ratioP2;P2;SDS_P1;SDS_P2;PMS_P1;PMS_P2;Temp;Humidity;BMP_temperature;BMP_pressure;BME280_temperature;BME280_humidity;BME280_pressure;Samples;Min_cycle;Max_cycle;Signal;HPM_P1;HPM_P2
2021/04/04 00:01:57;;;;;;;7.55;3.20;;;;;;;;;;5026567;28;20036;-82
2021/04/04 00:04:43;;;;;;;15.35;3.70;;;;;;;;;;5022489;28;20075;-84
2021/04/04 00:07:28;;;;;;;8.98;4.03;;;;;;;;;;5024057;28;20259;-83
2021/04/04 00:10:14;;;;;;;10.60;4.05;;;;;;;;;;5023564;28;20048;-84
2021/04/04 00:13:00;;;;;;;9.77;3.55;;;;;;;;;;5025988;28;20118;-84
2021/04/04 00:15:45;;;;;;;7.25;3.45;;;;;;;;;;5018407;28;20396;-84
2021/04/04 00:18:30;;;;;;;12.88;4.10;;;;;;;;;;5022041;28;20033;-85
2021/04/04 00:21:21;;;;;;;9.85;4.00;;;;;;;;;;5025945;28;20026;-84
2021/04/04 00:24:09;;;;;;;8.73;3.78;;;;;;;;;;5020849;28;20029;-84
2021/04/04 00:26:55;;;;;;;11.40;3.70;;;;;;;;;;5025372;28;20029;-84
2021/04/04 00:29:40;;;;;;;9.18;3.75;;;;;;;;;;5023308;28;20087;-84
2021/04/04 00:32:25;;;;;;;9.75;3.70;;;;;;;;;;5026833;28;20708;-82
2021/04/04 00:35:11;;;;;;;10.38;4.00;;;;;;;;;;5019058;28;20021;-84
2021/04/04 00:37:57;;;;;;;7.70;3.50;;;;;;;;;;5025458;28;20032;-83
2021/04/04 00:40:42;;;;;;;8.48;3.80;;;;;;;;;;5025166;28;20029;-84
2021/04/04 00:43:27;;;;;;;10.00;4.05;;;;;;;;;;5027214;28;20108;-85
2021/04/04 00:46:12;;;;;;;7.20;3.58;;;;;;;;;;5023937;28;20732;-84
2021/04/04 00:48:58;;;;;;;9.75;3.75;;;;;;;;;;5024071;28;20057;-83
2021/04/04 00:51:43;;;;;;;13.13;4.05;;;;;;;;;;5019796;28;20387;-83
2021/04/04 00:54:29;;;;;;;11.02;4.70;;;;;;;;;;5025476;28;20435;-83
2021/04/04 00:57:14;;;;;;;10.00;4.07;;;;;;;;;;5024700;28;20040;-82
2021/04/04 00:59:59;;;;;;;11.02;4.25;;;;;;;;;;5026478;28;20505;-83
2021/04/04 01:02:45;;;;;;;12.20;4.32;;;;;;;;;;5023975;28;20112;-83
2021/04/04 01:05:33;;;;;;;7.70;3.70;;;;;;;;;;5023348;28;20037;-83
2021/04/04 01:08:18;;;;;;;9.90;3.85;;;;;;;;;;5026662;28;20369;-85
2021/04/04 01:11:04;;;;;;;12.88;4.13;;;;;;;;;;5024140;28;20021;-83
2021/04/04 01:14:06;;;;;;;5.57;3.20;;;;;;;;;;5040297;28;20337;-83
2021/04/04 01:16:53;;;;;;;11.32;4.25;;;;;;;;;;5016875;28;20026;-83
2021/04/04 01:19:47;;;;;;;10.43;3.83;;;;;;;;;;5023219;28;20048;-83
2021/04/04 01:22:51;;;;;;;10.65;4.65;;;;;;;;;;5020406;28;20036;-83
2021/04/04 01:25:53;;;;;;;9.23;4.15;;;;;;;;;;5027240;28;20413;-84
2021/04/04 01:28:39;;;;;;;8.20;3.65;;;;;;;;;;5023299;28;20051;-84
2021/04/04 01:31:25;;;;;;;12.75;4.00;;;;;;;;;;5013653;28;20064;-83
2021/04/04 01:34:11;;;;;;;8.27;4.68;;;;;;;;;;5025086;28;20033;-83
2021/04/04 01:37:04;;;;;;;11.27;3.95;;;;;;;;;;5019020;28;20092;-83
2021/04/04 01:39:51;;;;;;;13.30;4.63;;;;;;;;;;5026806;28;20124;-83
2021/04/04 01:42:37;;;;;;;10.00;3.60;;;;;;;;;;5024048;28;20032;-83
2021/04/04 01:45:25;;;;;;;8.05;4.18;;;;;;;;;;5024453;28;20032;-83
2021/04/04 01:48:13;;;;;;;8.73;3.83;;;;;;;;;;5021039;28;20022;-83
2021/04/04 01:51:00;;;;;;;11.80;4.25;;;;;;;;;;5026456;28;20040;-84
2021/04/04 01:53:45;;;;;;;9.93;3.97;;;;;;;;;;5016472;28;20384;-84
2021/04/04 01:56:31;;;;;;;7.53;3.47;;;;;;;;;;5026794;28;20116;-84
2021/04/04 01:59:18;;;;;;;9.90;4.35;;;;;;;;;;5022691;28;20057;-84
2021/04/04 02:02:04;;;;;;;6.85;3.20;;;;;;;;;;5022053;28;20024;-83
2021/04/04 02:04:50;;;;;;;10.43;4.53;;;;;;;;;;5019869;28;20075;-83
2021/04/04 02:07:40;;;;;;;8.68;3.42;;;;;;;;;;5017659;28;20035;-84
2021/04/04 02:10:27;;;;;;;7.90;3.92;;;;;;;;;;5023201;28;20025;-84
2021/04/04 02:13:13;;;;;;;5.50;3.17;;;;;;;;;;5024125;28;20112;-84
2021/04/04 02:15:59;;;;;;;7.60;3.47;;;;;;;;;;5024847;28;20480;-83
2021/04/04 02:18:44;;;;;;;8.57;3.90;;;;;;;;;;5022512;28;20033;-82
2021/04/04 02:21:30;;;;;;;9.18;3.58;;;;;;;;;;5019774;28;20033;-83
2021/04/04 02:24:16;;;;;;;9.82;3.95;;;;;;;;;;5018402;28;20383;-83
2021/04/04 02:27:02;;;;;;;8.57;3.42;;;;;;;;;;5021162;28;20029;-83
2021/04/04 02:29:47;;;;;;;9.85;4.03;;;;;;;;;;5020866;28;20379;-84
2021/04/04 02:32:36;;;;;;;8.63;3.55;;;;;;;;;;5021368;28;20087;-84
2021/04/04 02:35:31;;;;;;;8.57;3.70;;;;;;;;;;5021519;28;20029;-85
2021/04/04 02:38:18;;;;;;;9.05;3.78;;;;;;;;;;5024851;28;20029;-83
2021/04/04 02:41:04;;;;;;;12.30;3.28;;;;;;;;;;5022324;28;20434;-83
2021/04/04 02:43:50;;;;;;;9.80;3.35;;;;;;;;;;5025106;28;20029;-84
2021/04/04 02:46:37;;;;;;;10.27;3.22;;;;;;;;;;5016192;28;20033;-84
2021/04/04 02:49:27;;;;;;;8.27;3.78;;;;;;;;;;5023673;28;20606;-82
2021/04/04 02:52:15;;;;;;;8.27;3.78;;;;;;;;;;5024207;28;20091;-83
2021/04/04 02:55:02;;;;;;;8.30;3.35;;;;;;;;;;5022577;28;20399;-83
2021/04/04 02:57:48;;;;;;;10.02;3.67;;;;;;;;;;5024992;28;20411;-83
2021/04/04 03:00:38;;;;;;;9.13;3.60;;;;;;;;;;5018949;28;20079;-83
2021/04/04 03:03:25;;;;;;;7.97;3.60;;;;;;;;;;5036973;28;20107;-84
2021/04/04 03:06:11;;;;;;;8.18;3.80;;;;;;;;;;5006445;28;20032;-83
2021/04/04 03:08:57;;;;;;;9.88;3.35;;;;;;;;;;5024960;28;20033;-83
2021/04/04 03:11:42;;;;;;;5.45;3.38;;;;;;;;;;5021168;28;20040;-83
2021/04/04 03:14:27;;;;;;;7.95;3.80;;;;;;;;;;5027677;28;20404;-83
2021/04/04 03:17:14;;;;;;;8.05;3.17;;;;;;;;;;5025790;28;20051;-84
2021/04/04 03:19:59;;;;;;;7.72;3.30;;;;;;;;;;5029343;28;20052;-83
2021/04/04 03:22:46;;;;;;;4.63;2.72;;;;;;;;;;5021442;28;20025;-83
2021/04/04 03:25:31;;;;;;;8.98;3.35;;;;;;;;;;5028543;28;20483;-81
2021/04/04 03:28:17;;;;;;;8.88;3.85;;;;;;;;;;5026392;28;20033;-82
2021/04/04 03:31:03;;;;;;;19.75;4.78;;;;;;;;;;5028565;28;20368;-83
2021/04/04 03:33:48;;;;;;;8.13;3.20;;;;;;;;;;5027587;28;21524;-82
2021/04/04 03:36:34;;;;;;;9.15;3.58;;;;;;;;;;5025888;28;20167;-84
2021/04/04 03:39:23;;;;;;;10.25;4.47;;;;;;;;;;5024028;28;20519;-83
2021/04/04 03:42:08;;;;;;;9.43;3.65;;;;;;;;;;5025399;28;20109;-83
2021/04/04 03:44:54;;;;;;;8.75;4.22;;;;;;;;;;5040696;28;20047;-83
2021/04/04 03:47:39;;;;;;;7.45;3.55;;;;;;;;;;5023225;28;20390;-83
2021/04/04 03:50:24;;;;;;;6.95;3.13;;;;;;;;;;5025983;28;20531;-83
2021/04/04 03:53:09;;;;;;;8.82;3.38;;;;;;;;;;5022098;28;20025;-83
2021/04/04 03:55:58;;;;;;;12.48;5.63;;;;;;;;;;5026256;28;20028;-82
2021/04/04 03:58:44;;;;;;;9.57;3.67;;;;;;;;;;5023984;28;20542;-83
2021/04/04 04:01:30;;;;;;;9.40;3.35;;;;;;;;;;5022572;28;20030;-83
2021/04/04 04:04:16;;;;;;;8.38;3.92;;;;;;;;;;5022076;28;20021;-83
2021/04/04 04:07:03;;;;;;;9.80;3.58;;;;;;;;;;5023345;28;20017;-83
2021/04/04 04:09:49;;;;;;;15.00;4.07;;;;;;;;;;5025140;28;20060;-83
2021/04/04 04:12:34;;;;;;;10.18;3.90;;;;;;;;;;5028003;28;20501;-83
2021/04/04 04:15:20;;;;;;;6.57;3.15;;;;;;;;;;5021845;28;20128;-83
2021/04/04 04:18:05;;;;;;;8.27;2.97;;;;;;;;;;5025804;28;20041;-84
2021/04/04 04:20:51;;;;;;;9.63;3.22;;;;;;;;;;5027512;28;20029;-83
2021/04/04 04:23:37;;;;;;;9.30;3.15;;;;;;;;;;5020851;28;20124;-83
2021/04/04 04:26:22;;;;;;;9.85;3.72;;;;;;;;;;5027929;28;20029;-83
2021/04/04 04:29:09;;;;;;;9.95;3.20;;;;;;;;;;5025718;28;20025;-83
2021/04/04 04:31:56;;;;;;;7.38;3.00;;;;;;;;;;5021746;28;20506;-83
2021/04/04 04:34:42;;;;;;;9.40;3.90;;;;;;;;;;5023602;28;20037;-84
2021/04/04 04:37:29;;;;;;;7.20;3.08;;;;;;;;;;5027882;28;20036;-84
2021/04/04 04:40:15;;;;;;;8.32;3.35;;;;;;;;;;5024964;28;20088;-83
2021/04/04 04:43:00;;;;;;;9.35;3.80;;;;;;;;;;5026216;28;20099;-84
2021/04/04 04:45:46;;;;;;;9.40;3.80;;;;;;;;;;5022914;28;20088;-83
2021/04/04 04:48:31;;;;;;;8.85;4.03;;;;;;;;;;5020116;28;20063;-83
2021/04/04 04:51:21;;;;;;;9.43;3.75;;;;;;;;;;5025808;28;20051;-83
2021/04/04 04:54:07;;;;;;;9.40;3.30;;;;;;;;;;5026221;28;20063;-83
2021/04/04 04:56:52;;;;;;;6.22;2.75;;;;;;;;;;5024867;28;20034;-83
2021/04/04 04:59:37;;;;;;;7.47;3.88;;;;;;;;;;5023521;28;20055;-83
2021/04/04 05:02:23;;;;;;;9.73;3.47;;;;;;;;;;5026404;28;20033;-83
2021/04/04 05:05:09;;;;;;;8.23;4.07;;;;;;;;;;5021791;28;21325;-83
2021/04/04 05:07:55;;;;;;;10.13;4.18;;;;;;;;;;5023241;28;20029;-83
2021/04/04 05:10:41;;;;;;;8.38;4.03;;;;;;;;;;5024499;28;20049;-83
2021/04/04 05:13:26;;;;;;;8.43;3.10;;;;;;;;;;5026815;28;20055;-83
2021/04/04 05:16:13;;;;;;;7.28;3.28;;;;;;;;;;5009673;28;20045;-83
2021/04/04 05:18:58;;;;;;;8.40;3.35;;;;;;;;;;5022689;28;20021;-83
2021/04/04 05:21:44;;;;;;;8.50;3.72;;;;;;;;;;5021514;28;20040;-83
2021/04/04 05:24:29;;;;;;;8.20;3.65;;;;;;;;;;5027183;28;20021;-83
2021/04/04 05:27:14;;;;;;;8.95;3.35;;;;;;;;;;5024207;28;20030;-83
2021/04/04 05:30:00;;;;;;;10.40;3.90;;;;;;;;;;5024438;28;20026;-83
2021/04/04 05:32:49;;;;;;;6.97;3.28;;;;;;;;;;5018636;28;20072;-83
2021/04/04 05:35:38;;;;;;;9.60;3.58;;;;;;;;;;5026464;28;20587;-83
2021/04/04 05:38:24;;;;;;;9.20;3.80;;;;;;;;;;5036862;28;20052;-83
2021/04/04 05:41:11;;;;;;;12.30;4.30;;;;;;;;;;5026177;28;20120;-84
2021/04/04 05:43:59;;;;;;;9.10;3.50;;;;;;;;;;5024839;28;20032;-84
2021/04/04 05:46:46;;;;;;;9.55;3.63;;;;;;;;;;5020711;28;20073;-84
2021/04/04 05:49:39;;;;;;;10.02;4.70;;;;;;;;;;5026262;28;20025;-84
2021/04/04 05:52:24;;;;;;;8.73;3.85;;;;;;;;;;5033129;28;20021;-83
2021/04/04 05:55:15;;;;;;;9.85;3.75;;;;;;;;;;5025535;28;20243;-84
2021/04/04 05:58:10;;;;;;;13.32;4.38;;;;;;;;;;5001194;28;20076;-84
2021/04/04 06:00:57;;;;;;;12.27;4.00;;;;;;;;;;5025790;28;20527;-83
2021/04/04 06:03:55;;;;;;;9.02;3.47;;;;;;;;;;5023168;28;20026;-84
2021/04/04 06:07:03;;;;;;;11.23;4.53;;;;;;;;;;5022563;28;20141;-83
2021/04/04 06:10:08;;;;;;;12.70;3.80;;;;;;;;;;5024224;28;20032;-83
2021/04/04 06:12:59;;;;;;;12.05;3.70;;;;;;;;;;5020188;28;20025;-83
2021/04/04 06:15:51;;;;;;;11.63;4.60;;;;;;;;;;5023463;28;20100;-83
2021/04/04 06:18:48;;;;;;;7.75;3.70;;;;;;;;;;5021627;28;20040;-84
2021/04/04 06:21:39;;;;;;;11.50;4.47;;;;;;;;;;5025599;28;20035;-82
2021/04/04 06:24:45;;;;;;;9.07;3.58;;;;;;;;;;5022126;28;20041;-82
2021/04/04 06:27:50;;;;;;;15.05;4.40;;;;;;;;;;5018977;28;20064;-82
2021/04/04 06:30:52;;;;;;;13.30;5.75;;;;;;;;;;5019097;28;20033;-83
2021/04/04 06:33:40;;;;;;;12.02;4.28;;;;;;;;;;5016800;28;20435;-83
2021/04/04 06:36:50;;;;;;;10.18;4.05;;;;;;;;;;5024456;28;20083;-84
2021/04/04 06:39:39;;;;;;;8.75;4.50;;;;;;;;;;5020031;28;20029;-85
2021/04/04 06:42:33;;;;;;;10.05;3.88;;;;;;;;;;5024152;28;20110;-84
2021/04/04 06:45:23;;;;;;;11.52;4.25;;;;;;;;;;5014585;28;20053;-83
2021/04/04 06:48:08;;;;;;;8.90;3.95;;;;;;;;;;5024139;28;20025;-84
2021/04/04 06:51:06;;;;;;;7.78;3.97;;;;;;;;;;5015655;28;20492;-84
2021/04/04 06:53:52;;;;;;;11.48;4.00;;;;;;;;;;5021889;28;20545;-86
2021/04/04 06:56:58;;;;;;;8.55;4.03;;;;;;;;;;5024486;28;20025;-85
2021/04/04 07:00:22;;;;;;;23.05;14.80;;;;;;;;;;5033231;28;20037;-85
2021/04/04 07:03:09;;;;;;;11.52;5.90;;;;;;;;;;5001621;28;20392;-85
2021/04/04 07:06:20;;;;;;;10.15;5.00;;;;;;;;;;5011144;28;20095;-85
2021/04/04 07:09:30;;;;;;;7.20;3.72;;;;;;;;;;5025088;28;20032;-84
2021/04/04 07:12:26;;;;;;;6.75;4.15;;;;;;;;;;5026428;28;20174;-83
2021/04/04 07:15:30;;;;;;;9.70;4.25;;;;;;;;;;5021382;28;20600;-83
2021/04/04 07:18:32;;;;;;;8.57;4.18;;;;;;;;;;5023960;28;20561;-84
2021/04/04 07:21:26;;;;;;;9.32;4.18;;;;;;;;;;5019199;28;20028;-82
2021/04/04 07:24:18;;;;;;;10.50;4.05;;;;;;;;;;5024322;28;20427;-83
2021/04/04 07:27:06;;;;;;;11.35;5.35;;;;;;;;;;5016113;28;20045;-83
2021/04/04 07:29:54;;;;;;;9.10;4.25;;;;;;;;;;5024561;28;20068;-83
2021/04/04 07:32:44;;;;;;;10.82;4.93;;;;;;;;;;5018756;28;20360;-85
2021/04/04 07:35:38;;;;;;;14.95;5.47;;;;;;;;;;5024575;28;20028;-83
2021/04/04 07:38:31;;;;;;;9.57;5.05;;;;;;;;;;5020717;28;20030;-81
2021/04/04 07:41:23;;;;;;;10.85;5.13;;;;;;;;;;5019164;28;20013;-82
2021/04/04 07:44:17;;;;;;;11.43;5.55;;;;;;;;;;5024304;28;20029;-82
2021/04/04 07:47:02;;;;;;;10.35;5.47;;;;;;;;;;5015996;28;20712;-82
2021/04/04 07:49:58;;;;;;;21.95;12.27;;;;;;;;;;5023838;28;20078;-82
2021/04/04 07:53:08;;;;;;;10.38;5.57;;;;;;;;;;5022103;28;20017;-81
2021/04/04 07:56:03;;;;;;;12.90;5.40;;;;;;;;;;5016192;28;20462;-82
2021/04/04 07:58:54;;;;;;;12.35;5.70;;;;;;;;;;5015422;28;20554;-82
2021/04/04 08:01:42;;;;;;;11.93;5.95;;;;;;;;;;5019961;28;20032;-81
2021/04/04 08:04:44;;;;;;;17.17;6.27;;;;;;;;;;5012597;28;20456;-83
2021/04/04 08:07:41;;;;;;;13.63;6.05;;;;;;;;;;5021042;28;20033;-82
2021/04/04 08:10:30;;;;;;;9.32;5.88;;;;;;;;;;5026927;28;20123;-81
2021/04/04 08:13:16;;;;;;;;;;;;;;;;;;5024147;28;20067;-81
2021/04/04 08:16:21;;;;;;;14.48;6.55;;;;;;;;;;5026736;28;19948;-81
2021/04/04 08:19:07;;;;;;;11.88;6.85;;;;;;;;;;5021810;28;20111;-82
2021/04/04 08:21:53;;;;;;;10.00;6.38;;;;;;;;;;5023929;28;20149;-81
2021/04/04 08:24:46;;;;;;;12.45;6.10;;;;;;;;;;5023495;28;20032;-82
2021/04/04 08:27:38;;;;;;;12.95;6.53;;;;;;;;;;5027478;28;20113;-82
2021/04/04 08:30:27;;;;;;;14.65;6.30;;;;;;;;;;5023680;28;20083;-81
2021/04/04 08:33:12;;;;;;;;;;;;;;;;;;5022832;28;20166;-81
2021/04/04 08:36:00;;;;;;;12.60;6.60;;;;;;;;;;5024518;28;19955;-82
2021/04/04 08:38:47;;;;;;;13.00;5.90;;;;;;;;;;5023944;28;20017;-81
2021/04/04 08:41:34;;;;;;;11.20;6.22;;;;;;;;;;5021434;28;20513;-83
2021/04/04 08:44:31;;;;;;;10.55;5.50;;;;;;;;;;5022192;28;20037;-83
2021/04/04 08:47:32;;;;;;;10.45;5.97;;;;;;;;;;5027108;28;20021;-83
2021/04/04 08:50:19;;;;;;;10.25;5.78;;;;;;;;;;5038630;28;20029;-84
2021/04/04 08:53:23;;;;;;;12.95;5.32;;;;;;;;;;5025877;28;20365;-83
2021/04/04 08:56:09;;;;;;;9.63;5.60;;;;;;;;;;5040145;28;20522;-82
2021/04/04 08:58:55;;;;;;;12.10;6.65;;;;;;;;;;5024127;28;20468;-83
2021/04/04 09:01:43;;;;;;;18.63;12.73;;;;;;;;;;5023363;28;20029;-83
2021/04/04 09:04:29;;;;;;;12.27;8.23;;;;;;;;;;5025048;28;20387;-83
2021/04/04 09:07:15;;;;;;;8.45;5.25;;;;;;;;;;5022985;28;20013;-81
2021/04/04 09:10:02;;;;;;;10.93;5.38;;;;;;;;;;5022075;28;20079;-83
2021/04/04 09:12:48;;;;;;;7.95;4.90;;;;;;;;;;5022517;28;20036;-82
2021/04/04 09:15:42;;;;;;;8.95;5.13;;;;;;;;;;5024177;28;20053;-84
2021/04/04 09:18:30;;;;;;;8.65;3.90;;;;;;;;;;5022924;28;20030;-84
2021/04/04 09:21:16;;;;;;;7.05;3.28;;;;;;;;;;5023918;28;20431;-84
2021/04/04 09:24:01;;;;;;;8.45;3.70;;;;;;;;;;5027502;28;20329;-82
2021/04/04 09:26:46;;;;;;;6.57;3.75;;;;;;;;;;5024038;28;20036;-83
2021/04/04 09:29:35;;;;;;;4.43;3.13;;;;;;;;;;5026955;28;20052;-82
2021/04/04 09:32:42;;;;;;;5.93;3.50;;;;;;;;;;5022734;28;20025;-82
2021/04/04 09:35:27;;;;;;;5.82;3.90;;;;;;;;;;5023969;28;20544;-80
2021/04/04 09:38:14;;;;;;;7.88;4.60;;;;;;;;;;5022556;28;20025;-82
2021/04/04 09:40:59;;;;;;;5.10;3.28;;;;;;;;;;5024256;28;20497;-83
2021/04/04 09:43:51;;;;;;;6.93;3.72;;;;;;;;;;5026388;28;20033;-82
2021/04/04 09:46:48;;;;;;;7.40;3.05;;;;;;;;;;5021593;28;20053;-83
2021/04/04 09:49:34;;;;;;;6.75;3.45;;;;;;;;;;5021301;28;20060;-83
2021/04/04 09:52:23;;;;;;;5.40;2.83;;;;;;;;;;5022309;28;20412;-82
2021/04/04 09:55:08;;;;;;;7.38;3.42;;;;;;;;;;5025483;28;20028;-83
2021/04/04 09:57:55;;;;;;;8.52;3.88;;;;;;;;;;5035263;28;20387;-83
2021/04/04 10:00:43;;;;;;;5.40;3.17;;;;;;;;;;5024278;28;20021;-82
2021/04/04 10:03:29;;;;;;;14.38;9.38;;;;;;;;;;5018130;28;20084;-83
2021/04/04 10:06:14;;;;;;;6.90;4.00;;;;;;;;;;5025115;28;20536;-83
2021/04/04 10:09:02;;;;;;;4.50;3.28;;;;;;;;;;5025492;28;20091;-83
2021/04/04 10:11:58;;;;;;;4.95;2.88;;;;;;;;;;5023415;28;20476;-83
2021/04/04 10:14:58;;;;;;;6.07;2.88;;;;;;;;;;5025158;28;20052;-82
2021/04/04 10:17:51;;;;;;;2.85;2.63;;;;;;;;;;5021369;28;20061;-83
2021/04/04 10:20:55;;;;;;;4.13;2.70;;;;;;;;;;5020429;28;20100;-83
2021/04/04 10:23:42;;;;;;;5.82;2.60;;;;;;;;;;5014462;28;20107;-83
2021/04/04 10:26:27;;;;;;;6.22;2.90;;;;;;;;;;5022974;28;20335;-83
2021/04/04 10:29:19;;;;;;;5.00;3.60;;;;;;;;;;5018782;28;20044;-83
2021/04/04 10:32:04;;;;;;;7.90;5.10;;;;;;;;;;5025291;28;20527;-83
2021/04/04 10:34:49;;;;;;;9.85;7.93;;;;;;;;;;5022873;28;20419;-83
2021/04/04 10:37:35;;;;;;;6.03;3.35;;;;;;;;;;5023932;28;20134;-83
2021/04/04 10:40:20;;;;;;;7.25;3.22;;;;;;;;;;5025501;28;20086;-82
2021/04/04 10:43:06;;;;;;;5.85;3.17;;;;;;;;;;5008950;28;20140;-82
2021/04/04 10:46:02;;;;;;;5.72;3.20;;;;;;;;;;5021990;28;20032;-83
2021/04/04 10:48:48;;;;;;;7.72;3.67;;;;;;;;;;5019117;28;20017;-83
2021/04/04 10:51:33;;;;;;;4.88;3.35;;;;;;;;;;5021536;28;20041;-82
2021/04/04 10:54:18;;;;;;;5.95;3.58;;;;;;;;;;5020113;28;20526;-83
2021/04/04 10:57:04;;;;;;;5.93;3.95;;;;;;;;;;5024953;28;20057;-82
2021/04/04 10:59:50;;;;;;;5.75;3.22;;;;;;;;;;5022495;28;20491;-82
2021/04/04 11:02:36;;;;;;;6.90;3.60;;;;;;;;;;5024001;28;20670;-82
2021/04/04 11:05:22;;;;;;;5.32;3.20;;;;;;;;;;5022485;28;20017;-83
2021/04/04 11:08:10;;;;;;;6.03;4.10;;;;;;;;;;5023627;28;20029;-83
2021/04/04 11:10:55;;;;;;;9.95;7.18;;;;;;;;;;5019975;28;20033;-83
2021/04/04 11:13:42;;;;;;;6.30;3.63;;;;;;;;;;5024837;28;20056;-83
2021/04/04 11:16:28;;;;;;;7.38;3.40;;;;;;;;;;5022663;28;20028;-84
2021/04/04 11:19:14;;;;;;;5.75;3.72;;;;;;;;;;5024336;28;20495;-83
2021/04/04 11:22:00;;;;;;;5.25;3.00;;;;;;;;;;5020115;28;20023;-83
2021/04/04 11:24:55;;;;;;;8.82;3.63;;;;;;;;;;5021633;28;20033;-83
2021/04/04 11:27:45;;;;;;;5.43;3.00;;;;;;;;;;5025482;28;20683;-82
2021/04/04 11:30:30;;;;;;;6.07;3.25;;;;;;;;;;5020930;28;20033;-82
2021/04/04 11:33:15;;;;;;;7.63;4.65;;;;;;;;;;5024333;28;20028;-82
2021/04/04 11:36:08;;;;;;;7.10;3.78;;;;;;;;;;5021749;28;20033;-83
2021/04/04 11:38:54;;;;;;;7.78;3.60;;;;;;;;;;5028045;28;20076;-81
2021/04/04 11:41:50;;;;;;;6.47;3.30;;;;;;;;;;5025913;28;20033;-83
2021/04/04 11:44:40;;;;;;;5.50;3.53;;;;;;;;;;5039920;28;20419;-82
2021/04/04 11:47:25;;;;;;;7.28;3.28;;;;;;;;;;5020889;28;20115;-82
2021/04/04 11:50:24;;;;;;;6.97;3.55;;;;;;;;;;5027996;28;20021;-82
2021/04/04 11:53:29;;;;;;;6.77;3.37;;;;;;;;;;5024583;28;20132;-82
2021/04/04 11:56:33;;;;;;;6.25;3.95;;;;;;;;;;5036800;28;20694;-82
2021/04/04 11:59:18;;;;;;;6.43;3.60;;;;;;;;;;5028102;28;20163;-83
2021/04/04 12:02:04;;;;;;;7.03;3.17;;;;;;;;;;5024475;28;21100;-82
2021/04/04 12:04:59;;;;;;;6.20;3.50;;;;;;;;;;5025168;28;20029;-83
2021/04/04 12:07:48;;;;;;;5.32;3.55;;;;;;;;;;5026128;28;20040;-81
2021/04/04 12:10:34;;;;;;;;;;;;;;;;;;5028755;28;20025;-82
2021/04/04 12:13:19;;;;;;;7.88;4.40;;;;;;;;;;5033513;28;19913;-81
2021/04/04 12:16:04;;;;;;;86.00;47.30;;;;;;;;;;5024216;28;20045;-82
2021/04/04 12:18:58;;;;;;;9.77;5.68;;;;;;;;;;5024280;28;20464;-81
2021/04/04 12:21:48;;;;;;;12.82;5.43;;;;;;;;;;5025479;28;20400;-81
2021/04/04 12:24:40;;;;;;;10.48;4.55;;;;;;;;;;5023694;28;20026;-82
2021/04/04 12:27:26;;;;;;;8.10;4.47;;;;;;;;;;5037798;28;20435;-82
2021/04/04 12:30:25;;;;;;;6.63;4.05;;;;;;;;;;5023890;28;20472;-83
2021/04/04 12:33:17;;;;;;;7.55;3.70;;;;;;;;;;5025314;28;20021;-81
2021/04/04 12:36:03;;;;;;;9.93;3.97;;;;;;;;;;5022961;28;20435;-82
2021/04/04 12:38:50;;;;;;;6.40;3.50;;;;;;;;;;5022054;28;20739;-82
2021/04/04 12:41:36;;;;;;;10.18;3.60;;;;;;;;;;5021692;28;20030;-83
2021/04/04 12:44:31;;;;;;;7.13;3.25;;;;;;;;;;5025400;28;20104;-82
2021/04/04 12:47:18;;;;;;;7.95;3.50;;;;;;;;;;5025680;28;20020;-81
2021/04/04 12:50:05;;;;;;;6.97;3.60;;;;;;;;;;5024693;28;20013;-82
2021/04/04 12:52:51;;;;;;;7.45;3.63;;;;;;;;;;5026533;28;20239;-81
2021/04/04 12:55:36;;;;;;;5.93;3.45;;;;;;;;;;5022777;28;20102;-82
2021/04/04 12:58:28;;;;;;;9.07;3.65;;;;;;;;;;5024107;28;20021;-84
2021/04/04 13:01:14;;;;;;;6.97;3.65;;;;;;;;;;5021614;28;20017;-82
2021/04/04 13:03:59;;;;;;;9.45;3.90;;;;;;;;;;5022789;28;20079;-83
2021/04/04 13:06:45;;;;;;;9.63;3.97;;;;;;;;;;5027595;28;20388;-82
2021/04/04 13:09:30;;;;;;;5.57;3.42;;;;;;;;;;5024784;28;20116;-82
2021/04/04 13:12:19;;;;;;;8.48;3.72;;;;;;;;;;5022043;28;20025;-82
2021/04/04 13:15:08;;;;;;;7.00;4.43;;;;;;;;;;5020866;28;20052;-83
2021/04/04 13:17:53;;;;;;;5.72;3.13;;;;;;;;;;5026719;28;20502;-82
2021/04/04 13:20:38;;;;;;;7.72;3.53;;;;;;;;;;5024235;28;20037;-82
2021/04/04 13:23:24;;;;;;;9.48;3.58;;;;;;;;;;5036431;28;20021;-81
2021/04/04 13:26:45;;;;;;;10.70;6.50;;;;;;;;;;5025728;28;20148;-82
2021/04/04 13:29:37;;;;;;;9.07;3.78;;;;;;;;;;5010138;28;20041;-83
2021/04/04 13:32:22;;;;;;;7.40;3.65;;;;;;;;;;5022163;28;20014;-82
2021/04/04 13:35:08;;;;;;;9.50;3.63;;;;;;;;;;5025566;28;20029;-81
2021/04/04 13:37:53;;;;;;;6.10;3.70;;;;;;;;;;5026335;28;20033;-79
2021/04/04 13:40:38;;;;;;;9.43;3.35;;;;;;;;;;5023787;28;20084;-80
2021/04/04 13:43:24;;;;;;;8.63;4.07;;;;;;;;;;5007660;28;20044;-82
2021/04/04 13:46:10;;;;;;;9.10;3.35;;;;;;;;;;5016340;28;20118;-81
2021/04/04 13:48:56;;;;;;;9.70;3.67;;;;;;;;;;5025714;28;20033;-81
2021/04/04 13:51:43;;;;;;;8.57;3.80;;;;;;;;;;5018933;28;20037;-81
2021/04/04 13:54:34;;;;;;;11.13;5.78;;;;;;;;;;5022114;28;20025;-83
2021/04/04 13:57:36;;;;;;;16.67;7.88;;;;;;;;;;5006135;28;20025;-81
2021/04/04 14:00:40;;;;;;;10.68;3.85;;;;;;;;;;5035105;28;20531;-80
2021/04/04 14:03:26;;;;;;;10.10;4.22;;;;;;;;;;5024810;28;20025;-82
2021/04/04 14:06:12;;;;;;;12.70;3.92;;;;;;;;;;5020263;28;20037;-82
2021/04/04 14:08:57;;;;;;;9.23;3.60;;;;;;;;;;5024262;28;20056;-81
2021/04/04 14:11:43;;;;;;;5.88;3.05;;;;;;;;;;5017663;28;20064;-83
2021/04/04 14:14:28;;;;;;;6.22;2.88;;;;;;;;;;5023373;28;20041;-83
2021/04/04 14:17:14;;;;;;;7.05;3.58;;;;;;;;;;5018714;28;20557;-82
2021/04/04 14:19:59;;;;;;;7.68;3.72;;;;;;;;;;5022509;28;20029;-83
2021/04/04 14:22:45;;;;;;;7.78;3.65;;;;;;;;;;5017068;28;20496;-81
2021/04/04 14:25:30;;;;;;;8.45;3.28;;;;;;;;;;5020434;28;20029;-82
2021/04/04 14:28:15;;;;;;;10.73;3.22;;;;;;;;;;5022426;28;20052;-82
2021/04/04 14:31:03;;;;;;;7.40;3.55;;;;;;;;;;5024341;28;20033;-82
2021/04/04 14:33:48;;;;;;;6.88;3.30;;;;;;;;;;5019146;28;20017;-82
2021/04/04 14:36:33;;;;;;;6.75;3.28;;;;;;;;;;5023533;28;20693;-81
2021/04/04 14:39:19;;;;;;;6.00;3.10;;;;;;;;;;5009207;28;20076;-81
2021/04/04 14:42:04;;;;;;;7.03;3.00;;;;;;;;;;5026242;28;20051;-81
2021/04/04 14:44:49;;;;;;;6.47;3.35;;;;;;;;;;5025623;28;20063;-81
2021/04/04 14:47:35;;;;;;;8.30;4.45;;;;;;;;;;5020698;28;20024;-81
2021/04/04 14:50:20;;;;;;;8.50;3.28;;;;;;;;;;5022438;28;20029;-81
2021/04/04 14:53:14;;;;;;;7.45;3.35;;;;;;;;;;5021841;28;20030;-81
2021/04/04 14:56:00;;;;;;;7.22;3.25;;;;;;;;;;5019124;28;20034;-81
2021/04/04 14:58:45;;;;;;;8.02;3.85;;;;;;;;;;5020012;28;20419;-82
2021/04/04 15:01:31;;;;;;;6.63;3.88;;;;;;;;;;5022192;28;20029;-82
2021/04/04 15:04:17;;;;;;;10.00;4.25;;;;;;;;;;5022849;28;20026;-82
2021/04/04 15:07:02;;;;;;;9.43;4.05;;;;;;;;;;5020851;28;20025;-82
2021/04/04 15:09:47;;;;;;;40.63;19.52;;;;;;;;;;5018947;28;20021;-81
2021/04/04 15:12:32;;;;;;;7.90;4.20;;;;;;;;;;5028403;28;20037;-83
2021/04/04 15:15:18;;;;;;;6.93;3.25;;;;;;;;;;5026965;28;20428;-82
2021/04/04 15:18:03;;;;;;;10.40;4.82;;;;;;;;;;5029318;28;20506;-81
2021/04/04 15:20:49;;;;;;;11.98;6.35;;;;;;;;;;5021377;28;20421;-81
2021/04/04 15:23:35;;;;;;;11.77;5.30;;;;;;;;;;5021971;28;20045;-82
2021/04/04 15:26:20;;;;;;;8.55;3.80;;;;;;;;;;5028425;28;20144;-82
2021/04/04 15:29:05;;;;;;;11.80;3.80;;;;;;;;;;5026399;28;20021;-82
2021/04/04 15:31:50;;;;;;;8.45;3.50;;;;;;;;;;5021269;28;20032;-82
2021/04/04 15:34:36;;;;;;;10.75;3.72;;;;;;;;;;5025747;28;20429;-82
2021/04/04 15:37:21;;;;;;;7.03;3.15;;;;;;;;;;5025546;28;20079;-82
2021/04/04 15:40:07;;;;;;;10.05;3.80;;;;;;;;;;5021042;28;20026;-82
2021/04/04 15:42:53;;;;;;;10.85;4.40;;;;;;;;;;5027335;28;20032;-82
2021/04/04 15:45:39;;;;;;;9.13;4.97;;;;;;;;;;5022141;28;20464;-82
2021/04/04 15:48:24;;;;;;;27.90;24.73;;;;;;;;;;5024539;28;20041;-82
2021/04/04 15:51:10;;;;;;;15.85;9.27;;;;;;;;;;5025655;28;20040;-82
2021/04/04 15:53:55;;;;;;;23.50;11.95;;;;;;;;;;5019773;28;20495;-82
2021/04/04 15:56:42;;;;;;;12.18;4.07;;;;;;;;;;5025187;28;20296;-82
2021/04/04 15:59:27;;;;;;;14.07;4.28;;;;;;;;;;5021955;28;20036;-82
2021/04/04 16:02:12;;;;;;;11.43;4.28;;;;;;;;;;5019057;28;20024;-82
2021/04/04 16:04:57;;;;;;;11.75;4.45;;;;;;;;;;5028657;28;20017;-82
2021/04/04 16:07:43;;;;;;;13.90;7.75;;;;;;;;;;5024601;28;20018;-82
2021/04/04 16:11:35;;;;;;;14.70;6.50;;;;;;;;;;5025980;28;20033;-82
2021/04/04 16:13:43;;;;;;;17.40;8.40;;;;;;;;;;5034806;28;20038;-82
2021/04/04 16:16:29;;;;;;;21.58;17.00;;;;;;;;;;5025190;28;20632;-81
2021/04/04 16:19:14;;;;;;;16.70;8.88;;;;;;;;;;5027451;28;20018;-81
2021/04/04 16:21:59;;;;;;;7.10;3.35;;;;;;;;;;5023569;28;20017;-81
2021/04/04 16:24:44;;;;;;;8.55;4.57;;;;;;;;;;5026421;28;20018;-81
2021/04/04 16:27:29;;;;;;;10.10;5.82;;;;;;;;;;5019471;28;20025;-81
2021/04/04 16:30:21;;;;;;;9.27;4.95;;;;;;;;;;5027950;28;20033;-82
2021/04/04 16:33:06;;;;;;;10.10;4.65;;;;;;;;;;5025022;28;20056;-80
2021/04/04 16:35:51;;;;;;;15.48;8.32;;;;;;;;;;5024658;28;20020;-81
2021/04/04 16:38:37;;;;;;;11.02;4.70;;;;;;;;;;5022991;28;20026;-82
2021/04/04 16:41:22;;;;;;;12.48;3.70;;;;;;;;;;5026613;28;20060;-82
2021/04/04 16:44:07;;;;;;;6.78;3.70;;;;;;;;;;5011582;28;20113;-82
2021/04/04 16:46:52;;;;;;;9.43;3.90;;;;;;;;;;5026593;28;20105;-82